Airfield :
LOGIN :

Register | Disclaimer

   EN    FR    IT 

 










Legend :    VFR   Marginal VFR   IFR   Intensive IFR   Very Intensive IFR
Visi :
Ceiling :
>= 8 km
>= 3000ft
5 to 8 km
1000 to 3000 ft
1500m to 5 km
500 to 1000 ft
800 to 1500m
200 to 500 ft
< 800m
< 200 ft
Symbols :   Thunderstorms  Fog  Heavy snow  Heavy precipitations  Wind > 20 kt
SIGMETs :     Misc.  Thunderstorms  Icing  Turbulence  Mountain Waves  Volcanic Ashes







- Airport Elevation : 1411 ft
- IATA code : ZHI


LSZG - Grenchen

CURRENT METAR :
  • 260720Z 23002KT 9999 -RA SCT015 SCT035 BKN045 06/05 Q1016 NOSIG

EXPIRED METARs :
  • 260650Z 17003KT 8000 -RA FEW005 SCT044 BKN050 06/05 Q1016 NOSIG
  • 260620Z 18004KT 7000 -RA FEW005 BKN041 OVC046 05/05 Q1016 NOSIG
  • 260550Z 23001KT 9000 -RA FEW010 SCT019 OVC031 05/05 Q1015 NOSIG
  • 260520Z 23001KT 8000 -RA FEW010 SCT050 BKN090 05/05 Q1015 NOSIG
  • 260450Z AUTO 23002KT 9999 -RA FEW016 SCT033 BKN050 05/05 Q1015

TAF TAF LSZG
Valid from the 26 at 06:00 until the 26 at 15:00 UTC


260525Z 2606/2615 VRB03KT 9999 -RA FEW015 SCT033 BKN050
PROB40
TEMPO 2606/2608 4000 RA FEW005 BKN012
ATIS : +41 32 396 96 33
No reported NOTAMs for that airfield.
2 SIGMETs reported for the Switzerland FIR (LSAS) :
 
Embedded thunderstorms
LSAS SIGMET 4 VALID 260700/260900 LSZH
LSAS SWITZERLAND FIR/UIR EMBD TS OBS WI N4641 E00836 - N4635 E00933 - N4545 E00902 - N4618 E00815 - N4641 E00836 TOP FL240 STNR NC=
Severe turbulence
LSAS SIGMET 3 VALID 260550/260750 LSZH
LSAS SWITZERLAND FIR SEV TURB OBS WI N4632 E00740 - N4618 E00816 - N4557 E00805 - N4550 E00704 - N4611 E00643 - N4632 E00740 FL200/300 STNR WKN=



MET'MAP, your aeronautical weather chart ! - Copyright ORBIFLY December 2007 - Disclaimer

ORBIFLY MET'MAP TEAM :

Programming & Development : Alexandra Zaïnal
Concept & Development : Baudouin d'Aumeries
Co-Development & Prog : Marc-Olivier Méhu
Technical & hardware support : Manuel Goepfert

Contact : metmap@orbifly.com




SOURCES & CREDITS :

   NOAA